sensor_id;sensor_type;location;lat;lon;timestamp;pressure;altitude;pressure_sealevel;temperature;humidity
49397;BME280;35615;41.410;2.194;2023-04-01T00:02:40;101642.09;;;19.71;51.97
49397;BME280;35615;41.410;2.194;2023-04-01T00:05:09;101636.94;;;19.76;51.89
49397;BME280;35615;41.410;2.194;2023-04-01T00:07:40;101633.59;;;19.86;51.66
49397;BME280;35615;41.410;2.194;2023-04-01T00:10:10;101632.56;;;19.76;51.63
49397;BME280;35615;41.410;2.194;2023-04-01T00:12:38;101637.13;;;19.89;51.26
49397;BME280;35615;41.410;2.194;2023-04-01T00:15:08;101637.88;;;19.82;51.55
49397;BME280;35615;41.410;2.194;2023-04-01T00:17:36;101635.56;;;19.46;52.63
49397;BME280;35615;41.410;2.194;2023-04-01T00:20:04;101639.28;;;19.59;52.38
49397;BME280;35615;41.410;2.194;2023-04-01T00:22:35;101642.09;;;19.71;51.82
49397;BME280;35615;41.410;2.194;2023-04-01T00:25:03;101638.13;;;19.41;52.84
49397;BME280;35615;41.410;2.194;2023-04-01T00:27:34;101629.09;;;19.24;53.44
49397;BME280;35615;41.410;2.194;2023-04-01T00:30:01;101635.53;;;19.44;51.98
49397;BME280;35615;41.410;2.194;2023-04-01T00:32:29;101626.31;;;19.15;53.66
49397;BME280;35615;41.410;2.194;2023-04-01T00:34:57;101628.53;;;19.43;52.70
49397;BME280;35615;41.410;2.194;2023-04-01T00:37:27;101616.22;;;19.39;52.62
49397;BME280;35615;41.410;2.194;2023-04-01T00:39:55;101610.56;;;19.12;53.58
49397;BME280;35615;41.410;2.194;2023-04-01T00:42:23;101608.84;;;19.15;53.35
49397;BME280;35615;41.410;2.194;2023-04-01T00:44:52;101608.78;;;19.09;53.43
49397;BME280;35615;41.410;2.194;2023-04-01T00:47:25;101606.81;;;18.96;53.70
49397;BME280;35615;41.410;2.194;2023-04-01T00:49:54;101606.19;;;19.12;53.26
49397;BME280;35615;41.410;2.194;2023-04-01T00:52:23;101604.59;;;19.21;53.06
49397;BME280;35615;41.410;2.194;2023-04-01T00:54:56;101601.00;;;19.15;53.26
49397;BME280;35615;41.410;2.194;2023-04-01T00:57:32;101600.06;;;19.12;53.50
49397;BME280;35615;41.410;2.194;2023-04-01T01:00:06;101600.59;;;18.93;53.88
49397;BME280;35615;41.410;2.194;2023-04-01T01:02:52;101607.88;;;19.07;53.52
49397;BME280;35615;41.410;2.194;2023-04-01T01:06:26;101612.34;;;18.65;54.67
49397;BME280;35615;41.410;2.194;2023-04-01T01:12:23;101619.66;;;18.84;54.05
49397;BME280;35615;41.410;2.194;2023-04-01T01:15:26;101613.03;;;18.57;54.82
49397;BME280;35615;41.410;2.194;2023-04-01T01:25:44;101606.72;;;18.48;55.03
49397;BME280;35615;41.410;2.194;2023-04-01T01:31:58;101616.97;;;18.79;54.35
49397;BME280;35615;41.410;2.194;2023-04-01T01:38:01;101602.34;;;18.92;53.86
49397;BME280;35615;41.410;2.194;2023-04-01T01:40:46;101613.41;;;18.76;54.44
49397;BME280;35615;41.410;2.194;2023-04-01T01:43:36;101609.66;;;18.63;54.73
49397;BME280;35615;41.410;2.194;2023-04-01T01:46:30;101599.53;;;18.38;55.38
49397;BME280;35615;41.410;2.194;2023-04-01T01:49:21;101602.84;;;18.71;54.53
49397;BME280;35615;41.410;2.194;2023-04-01T01:52:00;101599.63;;;18.86;53.88
49397;BME280;35615;41.410;2.194;2023-04-01T01:54:54;101602.25;;;18.41;55.23
49397;BME280;35615;41.410;2.194;2023-04-01T02:00:33;101605.59;;;18.77;54.21
49397;BME280;35615;41.410;2.194;2023-04-01T02:03:03;101605.41;;;18.68;54.50
49397;BME280;35615;41.410;2.194;2023-04-01T02:05:31;101590.94;;;18.89;54.16
49397;BME280;35615;41.410;2.194;2023-04-01T02:08:10;101590.34;;;19.06;53.21
49397;BME280;35615;41.410;2.194;2023-04-01T02:10:42;101586.69;;;18.95;53.90
49397;BME280;35615;41.410;2.194;2023-04-01T02:13:32;101581.81;;;19.16;53.18
49397;BME280;35615;41.410;2.194;2023-04-01T02:16:08;101590.22;;;18.96;53.50
49397;BME280;35615;41.410;2.194;2023-04-01T02:18:41;101596.06;;;18.82;53.89
49397;BME280;35615;41.410;2.194;2023-04-01T02:21:11;101580.66;;;18.99;53.48
49397;BME280;35615;41.410;2.194;2023-04-01T02:23:40;101586.81;;;19.01;53.49
49397;BME280;35615;41.410;2.194;2023-04-01T02:26:10;101585.22;;;19.11;53.11
49397;BME280;35615;41.410;2.194;2023-04-01T02:28:41;101584.41;;;19.16;52.60
49397;BME280;35615;41.410;2.194;2023-04-01T02:31:10;101585.38;;;19.20;52.65
49397;BME280;35615;41.410;2.194;2023-04-01T02:33:39;101581.97;;;19.27;52.52
49397;BME280;35615;41.410;2.194;2023-04-01T02:36:17;101587.72;;;19.05;53.09
49397;BME280;35615;41.410;2.194;2023-04-01T02:38:46;101587.88;;;19.14;52.73
49397;BME280;35615;41.410;2.194;2023-04-01T02:41:14;101586.06;;;19.08;52.79
49397;BME280;35615;41.410;2.194;2023-04-01T02:43:42;101590.16;;;18.94;53.42
49397;BME280;35615;41.410;2.194;2023-04-01T02:46:09;101597.00;;;18.84;53.59
49397;BME280;35615;41.410;2.194;2023-04-01T02:48:37;101594.53;;;18.95;53.37
49397;BME280;35615;41.410;2.194;2023-04-01T02:51:08;101596.44;;;19.04;53.26
49397;BME280;35615;41.410;2.194;2023-04-01T02:53:38;101588.81;;;19.17;52.72
49397;BME280;35615;41.410;2.194;2023-04-01T02:56:06;101586.06;;;19.08;52.75
49397;BME280;35615;41.410;2.194;2023-04-01T02:58:33;101579.84;;;19.03;53.37
49397;BME280;35615;41.410;2.194;2023-04-01T03:01:09;101578.81;;;18.48;54.75
49397;BME280;35615;41.410;2.194;2023-04-01T03:03:38;101576.66;;;18.71;54.20
49397;BME280;35615;41.410;2.194;2023-04-01T03:06:11;101579.84;;;18.56;54.58
49397;BME280;35615;41.410;2.194;2023-04-01T03:08:42;101576.97;;;18.86;53.63
49397;BME280;35615;41.410;2.194;2023-04-01T03:11:14;101577.66;;;18.78;53.98
49397;BME280;35615;41.410;2.194;2023-04-01T03:13:42;101584.81;;;18.86;53.68
49397;BME280;35615;41.410;2.194;2023-04-01T03:16:15;101588.41;;;18.93;53.87
49397;BME280;35615;41.410;2.194;2023-04-01T03:18:52;101584.25;;;19.06;53.35
49397;BME280;35615;41.410;2.194;2023-04-01T03:21:23;101582.56;;;19.08;53.50
49397;BME280;35615;41.410;2.194;2023-04-01T03:23:51;101568.56;;;18.59;54.79
49397;BME280;35615;41.410;2.194;2023-04-01T03:26:24;101562.78;;;18.74;54.56
49397;BME280;35615;41.410;2.194;2023-04-01T03:28:56;101563.06;;;18.92;54.02
49397;BME280;35615;41.410;2.194;2023-04-01T03:31:25;101567.59;;;19.02;53.75
49397;BME280;35615;41.410;2.194;2023-04-01T03:33:58;101577.56;;;18.73;54.66
49397;BME280;35615;41.410;2.194;2023-04-01T03:36:29;101575.97;;;18.81;54.31
49397;BME280;35615;41.410;2.194;2023-04-01T03:38:58;101574.19;;;18.79;54.44
49397;BME280;35615;41.410;2.194;2023-04-01T03:41:38;101577.84;;;18.87;54.24
49397;BME280;35615;41.410;2.194;2023-04-01T03:44:14;101578.00;;;18.96;54.01
49397;BME280;35615;41.410;2.194;2023-04-01T03:46:50;101575.59;;;19.10;53.61
49397;BME280;35615;41.410;2.194;2023-04-01T03:49:24;101566.78;;;19.05;54.09
49397;BME280;35615;41.410;2.194;2023-04-01T03:51:55;101563.44;;;19.15;53.54
49397;BME280;35615;41.410;2.194;2023-04-01T03:54:31;101565.28;;;19.21;53.71
49397;BME280;35615;41.410;2.194;2023-04-01T03:56:59;101571.47;;;19.24;53.65
49397;BME280;35615;41.410;2.194;2023-04-01T04:02:45;101571.47;;;19.24;53.65
49397;BME280;35615;41.410;2.194;2023-04-01T04:05:19;101568.25;;;18.88;55.14
49397;BME280;35615;41.410;2.194;2023-04-01T04:07:46;101565.88;;;19.03;54.53
49397;BME280;35615;41.410;2.194;2023-04-01T04:10:17;101565.63;;;18.88;55.50
49397;BME280;35615;41.410;2.194;2023-04-01T04:12:44;101571.56;;;18.79;55.75
49397;BME280;35615;41.410;2.194;2023-04-01T04:15:11;101581.69;;;18.62;56.39
49397;BME280;35615;41.410;2.194;2023-04-01T04:17:39;101575.13;;;18.84;55.57
49397;BME280;35615;41.410;2.194;2023-04-01T04:20:07;101564.09;;;19.00;55.22
49397;BME280;35615;41.410;2.194;2023-04-01T04:22:40;101573.69;;;19.00;55.42
49397;BME280;35615;41.410;2.194;2023-04-01T04:25:08;101580.81;;;19.08;55.03
49397;BME280;35615;41.410;2.194;2023-04-01T04:27:39;101576.53;;;19.15;54.61
49397;BME280;35615;41.410;2.194;2023-04-01T04:30:10;101569.81;;;19.31;54.44
49397;BME280;35615;41.410;2.194;2023-04-01T04:32:41;101572.47;;;19.34;54.52
49397;BME280;35615;41.410;2.194;2023-04-01T04:35:10;101569.09;;;19.41;54.13
49397;BME280;35615;41.410;2.194;2023-04-01T04:37:38;101581.38;;;19.45;54.14
49397;BME280;35615;41.410;2.194;2023-04-01T04:40:10;101570.03;;;19.46;54.44
49397;BME280;35615;41.410;2.194;2023-04-01T04:42:38;101570.94;;;19.48;54.09
49397;BME280;35615;41.410;2.194;2023-04-01T04:45:10;101561.19;;;19.39;54.64
49397;BME280;35615;41.410;2.194;2023-04-01T04:47:46;101567.84;;;19.17;55.49
49397;BME280;35615;41.410;2.194;2023-04-01T04:50:15;101550.19;;;19.06;56.09
49397;BME280;35615;41.410;2.194;2023-04-01T04:52:46;101552.78;;;19.04;56.16
49397;BME280;35615;41.410;2.194;2023-04-01T04:55:17;101557.72;;;18.84;56.80
49397;BME280;35615;41.410;2.194;2023-04-01T04:58:06;101552.66;;;18.48;58.11
49397;BME280;35615;41.410;2.194;2023-04-01T05:00:35;101550.19;;;18.56;58.16
49397;BME280;35615;41.410;2.194;2023-04-01T05:03:07;101537.53;;;18.77;57.33
49397;BME280;35615;41.410;2.194;2023-04-01T05:05:34;101544.31;;;18.68;58.04
49397;BME280;35615;41.410;2.194;2023-04-01T05:08:03;101562.66;;;18.68;58.05
49397;BME280;35615;41.410;2.194;2023-04-01T05:10:31;101559.56;;;18.90;57.28
49397;BME280;35615;41.410;2.194;2023-04-01T05:13:01;101568.47;;;19.01;57.10
49397;BME280;35615;41.410;2.194;2023-04-01T05:15:32;101581.84;;;18.68;58.19
49397;BME280;35615;41.410;2.194;2023-04-01T05:18:02;101572.72;;;18.95;57.41
49397;BME280;35615;41.410;2.194;2023-04-01T05:20:29;101574.41;;;18.91;57.46
49397;BME280;35615;41.410;2.194;2023-04-01T05:22:57;101572.88;;;19.05;57.13
49397;BME280;35615;41.410;2.194;2023-04-01T05:25:28;101564.22;;;19.08;56.93
49397;BME280;35615;41.410;2.194;2023-04-01T05:27:56;101562.69;;;19.22;56.76
49397;BME280;35615;41.410;2.194;2023-04-01T05:30:26;101581.91;;;19.21;56.97
49397;BME280;35615;41.410;2.194;2023-04-01T05:33:00;101571.25;;;19.12;57.33
49397;BME280;35615;41.410;2.194;2023-04-01T05:35:27;101561.81;;;19.22;56.91
49397;BME280;35615;41.410;2.194;2023-04-01T05:37:57;101557.47;;;19.22;57.23
49397;BME280;35615;41.410;2.194;2023-04-01T05:40:25;101556.94;;;18.90;58.22
49397;BME280;35615;41.410;2.194;2023-04-01T05:42:56;101559.50;;;18.85;58.66
49397;BME280;35615;41.410;2.194;2023-04-01T05:45:23;101563.28;;;19.06;57.54
49397;BME280;35615;41.410;2.194;2023-04-01T05:47:59;101567.84;;;19.17;57.35
49397;BME280;35615;41.410;2.194;2023-04-01T05:50:33;101574.97;;;19.25;57.26
49397;BME280;35615;41.410;2.194;2023-04-01T05:53:01;101581.25;;;19.36;56.49
49397;BME280;35615;41.410;2.194;2023-04-01T05:55:29;101581.22;;;19.34;56.50
49397;BME280;35615;41.410;2.194;2023-04-01T05:57:59;101578.38;;;19.19;56.20
49397;BME280;35615;41.410;2.194;2023-04-01T06:00:27;101586.06;;;19.08;50.75
49397;BME280;35615;41.410;2.194;2023-04-01T06:02:59;101585.84;;;18.96;47.04
49397;BME280;35615;41.410;2.194;2023-04-01T06:05:29;101587.50;;;18.91;45.08
49397;BME280;35615;41.410;2.194;2023-04-01T06:08:01;101595.13;;;18.77;42.99
49397;BME280;35615;41.410;2.194;2023-04-01T06:10:48;101594.47;;;18.91;41.99
49397;BME280;35615;41.410;2.194;2023-04-01T06:20:05;101601.63;;;18.54;39.12
49397;BME280;35615;41.410;2.194;2023-04-01T06:36:40;101585.13;;;18.59;37.94
49397;BME280;35615;41.410;2.194;2023-04-01T06:44:52;101591.84;;;18.91;37.78
49397;BME280;35615;41.410;2.194;2023-04-01T06:51:10;101589.19;;;18.42;37.71
49397;BME280;35615;41.410;2.194;2023-04-01T06:54:17;101605.88;;;18.49;37.75
49397;BME280;35615;41.410;2.194;2023-04-01T06:57:23;101599.00;;;18.54;37.17
49397;BME280;35615;41.410;2.194;2023-04-01T06:59:59;101603.66;;;18.67;37.80
49397;BME280;35615;41.410;2.194;2023-04-01T07:05:02;101592.63;;;18.85;38.41
49397;BME280;35615;41.410;2.194;2023-04-01T07:07:58;101587.09;;;18.68;37.54
49397;BME280;35615;41.410;2.194;2023-04-01T07:13:49;101580.66;;;18.52;37.46
49397;BME280;35615;41.410;2.194;2023-04-01T07:16:43;101582.66;;;18.64;37.23
49397;BME280;35615;41.410;2.194;2023-04-01T07:19:37;101576.66;;;18.71;37.18
49397;BME280;35615;41.410;2.194;2023-04-01T07:22:29;101580.97;;;18.24;37.48
49397;BME280;35615;41.410;2.194;2023-04-01T07:25:34;101594.59;;;18.51;37.21
49397;BME280;35615;41.410;2.194;2023-04-01T07:28:32;101596.28;;;18.49;37.58
49397;BME280;35615;41.410;2.194;2023-04-01T07:34:36;101600.75;;;18.53;37.46
49397;BME280;35615;41.410;2.194;2023-04-01T07:37:12;101598.38;;;18.64;37.52
49397;BME280;35615;41.410;2.194;2023-04-01T07:45:30;101600.75;;;18.53;37.40
49397;BME280;35615;41.410;2.194;2023-04-01T07:51:08;101588.59;;;18.57;37.08
49397;BME280;35615;41.410;2.194;2023-04-01T08:07:40;101600.84;;;18.59;37.40
49397;BME280;35615;41.410;2.194;2023-04-01T08:13:50;101606.16;;;18.63;37.93
49397;BME280;35615;41.410;2.194;2023-04-01T08:17:26;101604.28;;;18.57;38.04
49397;BME280;35615;41.410;2.194;2023-04-01T08:22:58;101604.28;;;18.57;37.92
49397;BME280;35615;41.410;2.194;2023-04-01T08:25:38;101600.78;;;18.56;37.80
49397;BME280;35615;41.410;2.194;2023-04-01T08:28:29;101596.56;;;18.63;38.18
49397;BME280;35615;41.410;2.194;2023-04-01T08:32:00;101604.25;;;18.54;37.64
49397;BME280;35615;41.410;2.194;2023-04-01T08:34:25;101604.59;;;18.72;37.69
49397;BME280;35615;41.410;2.194;2023-04-01T08:37:07;101607.75;;;18.56;37.41
49397;BME280;35615;41.410;2.194;2023-04-01T08:39:39;101607.16;;;18.68;37.23
49397;BME280;35615;41.410;2.194;2023-04-01T09:00:33;101595.34;;;18.91;36.97
49397;BME280;35615;41.410;2.194;2023-04-01T09:03:36;101602.56;;;19.04;36.89
49397;BME280;35615;41.410;2.194;2023-04-01T09:09:15;101600.22;;;19.20;36.49
49397;BME280;35615;41.410;2.194;2023-04-01T09:23:33;101598.88;;;19.48;35.74
49397;BME280;35615;41.410;2.194;2023-04-01T09:26:44;101594.63;;;19.54;35.29
49397;BME280;35615;41.410;2.194;2023-04-01T09:41:07;101592.84;;;19.52;34.48
49397;BME280;35615;41.410;2.194;2023-04-01T09:45:13;101597.63;;;19.77;35.00
49397;BME280;35615;41.410;2.194;2023-04-01T10:25:51;101558.78;;;23.42;28.25
49397;BME280;35615;41.410;2.194;2023-04-01T10:36:54;101549.75;;;24.12;26.92
49397;BME280;35615;41.410;2.194;2023-04-01T10:39:40;101539.81;;;24.63;26.99
49397;BME280;35615;41.410;2.194;2023-04-01T10:43:04;101546.53;;;25.04;26.37
49397;BME280;35615;41.410;2.194;2023-04-01T11:17:01;101452.34;;;27.35;22.77
49397;BME280;35615;41.410;2.194;2023-04-01T11:28:20;101434.19;;;27.14;22.55
49397;BME280;35615;41.410;2.194;2023-04-01T11:31:11;101427.78;;;27.26;23.01
49397;BME280;35615;41.410;2.194;2023-04-01T11:44:13;101408.19;;;26.34;24.13
49397;BME280;35615;41.410;2.194;2023-04-01T11:52:59;101406.69;;;25.55;26.76
49397;BME280;35615;41.410;2.194;2023-04-01T11:55:54;101406.34;;;25.84;26.65
49397;BME280;35615;41.410;2.194;2023-04-01T12:09:47;101399.88;;;26.01;26.89
49397;BME280;35615;41.410;2.194;2023-04-01T12:21:36;101391.16;;;24.43;29.05
49397;BME280;35615;41.410;2.194;2023-04-01T12:36:22;101374.09;;;24.76;29.80
49397;BME280;35615;41.410;2.194;2023-04-01T12:48:32;101343.81;;;24.18;31.99
49397;BME280;35615;41.410;2.194;2023-04-01T12:54:44;101340.38;;;24.07;33.10
49397;BME280;35615;41.410;2.194;2023-04-01T13:11:50;101292.81;;;24.96;30.95
49397;BME280;35615;41.410;2.194;2023-04-01T13:14:57;101279.00;;;25.42;29.18
49397;BME280;35615;41.410;2.194;2023-04-01T13:17:35;101275.34;;;25.52;29.02
49397;BME280;35615;41.410;2.194;2023-04-01T13:20:33;101256.53;;;25.70;28.44
49397;BME280;35615;41.410;2.194;2023-04-01T13:26:13;101263.25;;;25.34;29.08
49397;BME280;35615;41.410;2.194;2023-04-01T13:34:38;101236.34;;;26.14;25.91
49397;BME280;35615;41.410;2.194;2023-04-01T13:40:51;101222.75;;;26.34;24.85
49397;BME280;35615;41.410;2.194;2023-04-01T13:43:52;101227.22;;;25.84;26.25
49397;BME280;35615;41.410;2.194;2023-04-01T13:46:43;101221.97;;;25.80;26.83
49397;BME280;35615;41.410;2.194;2023-04-01T13:52:44;101214.22;;;25.67;26.37
49397;BME280;35615;41.410;2.194;2023-04-01T13:55:46;101191.16;;;25.77;26.34
49397;BME280;35615;41.410;2.194;2023-04-01T13:58:28;101177.91;;;25.77;26.29
49397;BME280;35615;41.410;2.194;2023-04-01T14:01:15;101180.56;;;25.77;26.04
49397;BME280;35615;41.410;2.194;2023-04-01T14:09:40;101155.06;;;26.19;25.94
49397;BME280;35615;41.410;2.194;2023-04-01T14:12:36;101141.97;;;26.93;25.30
49397;BME280;35615;41.410;2.194;2023-04-01T14:24:00;101142.53;;;27.45;28.83
49397;BME280;35615;41.410;2.194;2023-04-01T14:41:40;101143.69;;;26.57;30.24
49397;BME280;35615;41.410;2.194;2023-04-01T14:47:46;101152.69;;;26.49;32.63
49397;BME280;35615;41.410;2.194;2023-04-01T14:50:21;101144.72;;;26.90;32.10
49397;BME280;35615;41.410;2.194;2023-04-01T14:55:50;101134.50;;;26.74;32.42
49397;BME280;35615;41.410;2.194;2023-04-01T14:58:20;101115.28;;;26.64;32.79
49397;BME280;35615;41.410;2.194;2023-04-01T15:12:37;101131.84;;;25.36;33.97
49397;BME280;35615;41.410;2.194;2023-04-01T15:15:44;101127.13;;;25.54;33.92
49397;BME280;35615;41.410;2.194;2023-04-01T15:39:14;101114.78;;;24.99;31.78
49397;BME280;35615;41.410;2.194;2023-04-01T15:42:14;101093.28;;;25.23;31.80
49397;BME280;35615;41.410;2.194;2023-04-01T15:47:33;101108.66;;;24.97;32.89
49397;BME280;35615;41.410;2.194;2023-04-01T15:58:45;101107.53;;;24.53;35.87
49397;BME280;35615;41.410;2.194;2023-04-01T16:14:44;101103.22;;;24.46;34.90
49397;BME280;35615;41.410;2.194;2023-04-01T16:17:53;101091.97;;;24.30;35.95
49397;BME280;35615;41.410;2.194;2023-04-01T16:23:22;101105.41;;;24.10;37.41
49397;BME280;35615;41.410;2.194;2023-04-01T16:26:07;101068.50;;;24.04;37.54
49397;BME280;35615;41.410;2.194;2023-04-01T16:28:50;101074.63;;;24.09;37.28
49397;BME280;35615;41.410;2.194;2023-04-01T16:31:31;101079.41;;;23.76;37.53
49397;BME280;35615;41.410;2.194;2023-04-01T16:34:09;101089.44;;;23.35;38.16
49397;BME280;35615;41.410;2.194;2023-04-01T16:36:45;101092.06;;;23.38;37.74
49397;BME280;35615;41.410;2.194;2023-04-01T16:39:44;101049.75;;;23.52;31.92
49397;BME280;35615;41.410;2.194;2023-04-01T16:42:25;101062.38;;;23.16;27.55
49397;BME280;35615;41.410;2.194;2023-04-01T16:45:17;101083.75;;;23.81;24.57
49397;BME280;35615;41.410;2.194;2023-04-01T16:47:48;101052.25;;;23.65;24.62
49397;BME280;35615;41.410;2.194;2023-04-01T16:50:22;101047.41;;;24.04;24.54
49397;BME280;35615;41.410;2.194;2023-04-01T16:55:57;101039.06;;;24.38;23.31
49397;BME280;35615;41.410;2.194;2023-04-01T16:58:39;101021.22;;;24.55;25.17
49397;BME280;35615;41.410;2.194;2023-04-01T17:01:16;101059.81;;;23.94;32.53
49397;BME280;35615;41.410;2.194;2023-04-01T17:18:53;101017.88;;;24.44;20.29
49397;BME280;35615;41.410;2.194;2023-04-01T17:27:03;101012.63;;;24.41;20.02
49397;BME280;35615;41.410;2.194;2023-04-01T17:38:34;101024.97;;;24.40;20.08
49397;BME280;35615;41.410;2.194;2023-04-01T17:50:07;101030.88;;;24.56;20.37
49397;BME280;35615;41.410;2.194;2023-04-01T17:53:05;101035.94;;;24.70;20.22
49397;BME280;35615;41.410;2.194;2023-04-01T17:55:55;101041.47;;;24.54;20.15
49397;BME280;35615;41.410;2.194;2023-04-01T18:01:30;101053.72;;;24.58;20.60
49397;BME280;35615;41.410;2.194;2023-04-01T18:04:28;101055.91;;;24.30;19.97
49397;BME280;35615;41.410;2.194;2023-04-01T18:10:13;101076.47;;;24.02;21.20
49397;BME280;35615;41.410;2.194;2023-04-01T18:13:21;101077.66;;;23.75;26.66
49397;BME280;35615;41.410;2.194;2023-04-01T18:26:59;101132.19;;;22.45;38.04
49397;BME280;35615;41.410;2.194;2023-04-01T18:30:03;101126.97;;;22.28;39.22
49397;BME280;35615;41.410;2.194;2023-04-01T18:38:14;101132.28;;;22.03;40.70
49397;BME280;35615;41.410;2.194;2023-04-01T18:49:26;101181.47;;;21.40;43.83
49397;BME280;35615;41.410;2.194;2023-04-01T18:52:22;101181.38;;;21.14;44.58
49397;BME280;35615;41.410;2.194;2023-04-01T19:00:16;101199.72;;;20.92;44.22
49397;BME280;35615;41.410;2.194;2023-04-01T19:03:07;101208.44;;;20.80;45.73
49397;BME280;35615;41.410;2.194;2023-04-01T19:05:40;101200.47;;;20.51;46.80
49397;BME280;35615;41.410;2.194;2023-04-01T19:14:05;101216.03;;;20.23;45.81
49397;BME280;35615;41.410;2.194;2023-04-01T19:16:59;101226.28;;;19.85;45.14
49397;BME280;35615;41.410;2.194;2023-04-01T19:20:13;101255.16;;;19.94;44.91
49397;BME280;35615;41.410;2.194;2023-04-01T19:23:31;101268.69;;;19.44;44.55
49397;BME280;35615;41.410;2.194;2023-04-01T19:26:11;101292.59;;;19.77;44.00
49397;BME280;35615;41.410;2.194;2023-04-01T19:28:52;101292.53;;;19.72;43.98
49397;BME280;35615;41.410;2.194;2023-04-01T19:40:53;101343.13;;;19.62;44.53
49397;BME280;35615;41.410;2.194;2023-04-01T19:49:10;101366.72;;;19.62;45.04
49397;BME280;35615;41.410;2.194;2023-04-01T19:51:45;101383.78;;;19.29;45.68
49397;BME280;35615;41.410;2.194;2023-04-01T19:59:53;101367.63;;;19.64;45.08
49397;BME280;35615;41.410;2.194;2023-04-01T20:02:43;101384.94;;;19.51;45.53
49397;BME280;35615;41.410;2.194;2023-04-01T20:08:36;101377.84;;;19.44;45.96
49397;BME280;35615;41.410;2.194;2023-04-01T20:19:37;101395.22;;;19.36;46.86
49397;BME280;35615;41.410;2.194;2023-04-01T20:24:53;101425.94;;;19.48;46.16
49397;BME280;35615;41.410;2.194;2023-04-01T20:27:27;101439.78;;;19.37;45.88
49397;BME280;35615;41.410;2.194;2023-04-01T20:44:40;101468.59;;;19.37;47.33
49397;BME280;35615;41.410;2.194;2023-04-01T20:55:58;101390.41;;;19.01;48.89
49397;BME280;35615;41.410;2.194;2023-04-01T20:58:38;101335.00;;;18.72;49.96
49397;BME280;35615;41.410;2.194;2023-04-01T21:01:40;101331.91;;;18.42;51.18
49397;BME280;35615;41.410;2.194;2023-04-01T21:15:38;101452.09;;;17.86;51.78
49397;BME280;35615;41.410;2.194;2023-04-01T21:18:36;101441.41;;;18.20;51.71
49397;BME280;35615;41.410;2.194;2023-04-01T21:26:34;101423.50;;;18.42;50.27
49397;BME280;35615;41.410;2.194;2023-04-01T22:06:22;101370.09;;;18.31;49.53
49397;BME280;35615;41.410;2.194;2023-04-01T22:09:01;101379.75;;;18.35;50.17
49397;BME280;35615;41.410;2.194;2023-04-01T22:14:56;101394.28;;;18.17;50.24
49397;BME280;35615;41.410;2.194;2023-04-01T22:18:48;101396.25;;;18.29;50.20
49397;BME280;35615;41.410;2.194;2023-04-01T22:26:56;101398.91;;;18.32;48.77
49397;BME280;35615;41.410;2.194;2023-04-01T22:29:48;101400.25;;;18.09;49.08
49397;BME280;35615;41.410;2.194;2023-04-01T22:32:28;101395.00;;;18.07;49.05
49397;BME280;35615;41.410;2.194;2023-04-01T22:41:38;101390.44;;;17.53;50.23
49397;BME280;35615;41.410;2.194;2023-04-01T22:43:46;101387.06;;;17.59;50.03
49397;BME280;35615;41.410;2.194;2023-04-01T22:49:41;101388.25;;;17.31;51.01
49397;BME280;35615;41.410;2.194;2023-04-01T22:52:33;101392.81;;;17.41;50.59
49397;BME280;35615;41.410;2.194;2023-04-01T22:55:24;101381.84;;;17.17;51.42
49397;BME280;35615;41.410;2.194;2023-04-01T23:00:30;101380.34;;;16.87;51.91
49397;BME280;35615;41.410;2.194;2023-04-01T23:03:14;101382.03;;;16.50;52.93
49397;BME280;35615;41.410;2.194;2023-04-01T23:05:51;101369.69;;;16.78;51.88
49397;BME280;35615;41.410;2.194;2023-04-01T23:17:12;101391.72;;;16.91;53.21
49397;BME280;35615;41.410;2.194;2023-04-01T23:20:09;101380.09;;;17.17;53.03
49397;BME280;35615;41.410;2.194;2023-04-01T23:23:12;101386.44;;;17.28;52.79
49397;BME280;35615;41.410;2.194;2023-04-01T23:28:39;101370.88;;;17.33;52.43
49397;BME280;35615;41.410;2.194;2023-04-01T23:34:21;101358.66;;;16.91;53.69
49397;BME280;35615;41.410;2.194;2023-04-01T23:36:55;101364.97;;;16.63;53.34
49397;BME280;35615;41.410;2.194;2023-04-01T23:39:26;101371.78;;;16.94;52.09
49397;BME280;35615;41.410;2.194;2023-04-01T23:42:05;101384.78;;;16.91;52.53
49397;BME280;35615;41.410;2.194;2023-04-01T23:44:35;101397.44;;;17.13;51.93
49397;BME280;35615;41.410;2.194;2023-04-01T23:47:04;101373.47;;;16.92;52.55
49397;BME280;35615;41.410;2.194;2023-04-01T23:49:41;101376.00;;;16.88;52.92
49397;BME280;35615;41.410;2.194;2023-04-01T23:52:22;101371.13;;;17.04;52.65
49397;BME280;35615;41.410;2.194;2023-04-01T23:55:01;101378.41;;;16.78;53.20
49397;BME280;35615;41.410;2.194;2023-04-01T23:57:35;101376.31;;;17.03;52.53
